createdAt,value
2023-05-03T00:00:56.145Z,40.30
2023-05-03T00:03:23.728Z,40.40
2023-05-03T00:05:50.265Z,41.15
2023-05-03T00:08:16.973Z,40.89
2023-05-03T00:10:43.478Z,40.69
2023-05-03T00:13:09.831Z,40.62
2023-05-03T00:15:36.171Z,40.62
2023-05-03T00:18:03.137Z,40.83
2023-05-03T00:20:30.724Z,41.00
2023-05-03T00:22:57.065Z,40.77
2023-05-03T00:25:25.026Z,41.07
2023-05-03T00:27:51.585Z,40.86
2023-05-03T00:30:19.594Z,41.27
2023-05-03T00:32:46.260Z,40.82
2023-05-03T00:35:13.040Z,40.75
2023-05-03T00:37:39.440Z,41.59
2023-05-03T00:40:07.368Z,41.43
2023-05-03T00:42:36.566Z,41.06
2023-05-03T00:45:04.995Z,41.38
2023-05-03T00:47:32.229Z,41.12
2023-05-03T00:50:00.836Z,41.22
2023-05-03T00:52:27.887Z,41.29
2023-05-03T00:54:54.470Z,41.07
2023-05-03T00:57:22.700Z,41.51
2023-05-03T00:59:49.797Z,41.46
2023-05-03T01:02:16.117Z,41.58
2023-05-03T01:04:43.422Z,41.64
2023-05-03T01:07:30.828Z,42.10
2023-05-03T01:10:08.770Z,41.96
2023-05-03T01:12:59.997Z,42.60
2023-05-03T01:16:00.956Z,42.90
2023-05-03T01:18:33.938Z,41.92
2023-05-03T01:21:02.553Z,41.59
2023-05-03T01:23:54.777Z,41.58
2023-05-03T01:26:26.008Z,41.86
2023-05-03T01:28:52.586Z,41.33
2023-05-03T01:31:24.136Z,42.24
2023-05-03T01:34:02.105Z,42.83
2023-05-03T01:36:35.068Z,42.33
2023-05-03T01:39:09.450Z,42.46
2023-05-03T01:41:40.504Z,42.07
2023-05-03T01:44:08.967Z,42.02
2023-05-03T01:46:42.451Z,42.57
2023-05-03T01:49:09.133Z,42.11
2023-05-03T01:51:35.561Z,42.03
2023-05-03T01:54:01.937Z,41.97
2023-05-03T01:56:28.274Z,42.14
2023-05-03T01:58:54.828Z,42.74
2023-05-03T02:01:21.230Z,42.44
2023-05-03T02:03:47.707Z,42.25
2023-05-03T02:06:14.379Z,42.36
2023-05-03T02:08:41.079Z,42.40
2023-05-03T02:11:07.841Z,42.61
2023-05-03T02:13:35.456Z,42.38
2023-05-03T02:16:01.819Z,42.18
2023-05-03T02:18:31.326Z,42.49
2023-05-03T02:20:58.096Z,42.65
2023-05-03T02:23:24.557Z,42.12
2023-05-03T02:25:51.311Z,42.26
2023-05-03T02:28:17.927Z,42.12
2023-05-03T02:30:44.371Z,42.57
2023-05-03T02:33:10.906Z,42.20
2023-05-03T02:35:37.325Z,42.54
2023-05-03T02:38:03.944Z,42.56
2023-05-03T02:40:30.516Z,42.52
2023-05-03T02:42:56.879Z,42.57
2023-05-03T02:45:23.678Z,43.06
2023-05-03T02:47:51.397Z,42.82
2023-05-03T02:50:18.064Z,42.75
2023-05-03T02:52:44.561Z,42.87
2023-05-03T02:55:10.903Z,42.86
2023-05-03T02:57:37.333Z,42.66
2023-05-03T03:00:05.874Z,42.68
2023-05-03T03:02:33.371Z,42.68
2023-05-03T03:04:59.914Z,42.49
2023-05-03T03:07:26.549Z,42.35
2023-05-03T03:09:52.936Z,42.71
2023-05-03T03:12:19.411Z,42.74
2023-05-03T03:14:45.762Z,42.70
2023-05-03T03:17:13.134Z,42.93
2023-05-03T03:19:40.972Z,42.85
2023-05-03T03:22:07.885Z,42.83
2023-05-03T03:24:34.716Z,43.35
2023-05-03T03:27:01.127Z,43.20
2023-05-03T03:29:30.061Z,43.35
2023-05-03T03:31:57.387Z,42.92
2023-05-03T03:34:24.025Z,42.82
2023-05-03T03:36:50.325Z,43.25
2023-05-03T03:39:16.772Z,42.89
2023-05-03T03:41:43.930Z,43.06
2023-05-03T03:44:10.534Z,42.89
2023-05-03T03:46:37.056Z,43.32
2023-05-03T03:49:04.180Z,42.81
2023-05-03T03:51:31.375Z,42.72
2023-05-03T03:53:57.788Z,42.85
2023-05-03T03:56:25.374Z,42.77
2023-05-03T03:58:51.799Z,42.84
2023-05-03T04:01:18.225Z,43.25
2023-05-03T04:03:47.831Z,43.29
2023-05-03T04:06:14.417Z,42.99
2023-05-03T04:08:42.355Z,43.16
2023-05-03T04:11:15.453Z,43.66
2023-05-03T04:13:41.892Z,43.10
2023-05-03T04:16:08.992Z,43.74
2023-05-03T04:18:35.833Z,43.71
2023-05-03T04:21:02.441Z,43.74
2023-05-03T04:23:29.065Z,43.56
2023-05-03T04:25:57.136Z,43.67
2023-05-03T04:28:23.688Z,43.57
2023-05-03T04:30:50.732Z,43.71
2023-05-03T04:33:17.382Z,43.67
2023-05-03T04:35:43.756Z,43.55
2023-05-03T04:38:10.326Z,43.66
2023-05-03T04:40:37.782Z,43.79
2023-05-03T04:43:04.388Z,43.26
2023-05-03T04:45:31.192Z,43.36
2023-05-03T04:47:57.607Z,43.72
2023-05-03T04:50:24.346Z,43.49
2023-05-03T04:52:50.789Z,43.44
2023-05-03T04:55:17.278Z,43.26
2023-05-03T04:57:43.887Z,43.64
2023-05-03T05:00:11.276Z,43.34
2023-05-03T05:02:38.118Z,43.35
2023-05-03T05:05:04.834Z,43.43
2023-05-03T05:07:31.445Z,43.44
2023-05-03T05:09:57.853Z,43.90
2023-05-03T05:12:24.232Z,43.84
2023-05-03T05:14:50.827Z,44.21
2023-05-03T05:17:17.269Z,44.17
2023-05-03T05:19:44.049Z,44.31
2023-05-03T05:22:10.686Z,43.96
2023-05-03T05:24:37.050Z,44.10
2023-05-03T05:27:04.620Z,44.13
2023-05-03T05:29:31.020Z,43.63
2023-05-03T05:31:57.491Z,43.73
2023-05-03T05:34:23.940Z,43.74
2023-05-03T05:36:52.340Z,43.68
2023-05-03T05:39:18.723Z,44.67
2023-05-03T05:41:45.516Z,43.93
2023-05-03T05:44:13.240Z,44.02
2023-05-03T05:46:39.668Z,44.03
2023-05-03T05:49:06.763Z,43.81
2023-05-03T05:51:33.297Z,44.08
2023-05-03T05:53:59.914Z,43.50
2023-05-03T05:56:26.735Z,43.63
2023-05-03T05:58:53.522Z,43.77
2023-05-03T06:01:19.894Z,43.50
2023-05-03T06:03:46.282Z,43.62
2023-05-03T06:08:54.028Z,43.29
2023-05-03T06:11:21.419Z,43.57
2023-05-03T06:13:53.259Z,43.34
2023-05-03T06:16:20.797Z,43.64
2023-05-03T06:18:47.178Z,43.57
2023-05-03T06:21:13.810Z,43.77
2023-05-03T06:23:42.098Z,43.41
2023-05-03T06:26:10.473Z,43.88
2023-05-03T06:28:38.927Z,43.01
2023-05-03T06:31:06.491Z,43.67
2023-05-03T06:33:35.048Z,43.12
2023-05-03T06:36:04.932Z,43.09
2023-05-03T06:38:31.923Z,43.04
2023-05-03T06:40:59.933Z,43.42
2023-05-03T06:43:29.087Z,43.11
2023-05-03T06:45:55.635Z,42.99
2023-05-03T06:48:22.203Z,42.89
2023-05-03T06:50:54.993Z,42.76
2023-05-03T06:53:21.746Z,42.76
2023-05-03T06:55:49.273Z,43.82
2023-05-03T06:58:16.682Z,42.84
2023-05-03T07:00:45.045Z,42.80
2023-05-03T07:03:13.634Z,43.20
2023-05-03T07:05:40.251Z,42.89
2023-05-03T07:08:06.826Z,42.65
2023-05-03T07:10:33.465Z,42.94
2023-05-03T07:13:01.311Z,42.48
2023-05-03T07:15:27.971Z,42.62
2023-05-03T07:17:58.117Z,42.20
2023-05-03T07:20:26.613Z,42.54
2023-05-03T07:22:54.148Z,42.85
2023-05-03T07:25:23.715Z,42.32
2023-05-03T07:27:54.897Z,41.83
2023-05-03T07:30:25.102Z,41.47
2023-05-03T07:32:51.918Z,41.98
2023-05-03T07:35:19.919Z,41.80
2023-05-03T07:37:46.325Z,41.77
2023-05-03T07:40:12.851Z,41.71
2023-05-03T07:42:39.411Z,41.53
2023-05-03T07:45:06.992Z,41.50
2023-05-03T07:47:37.840Z,40.96
2023-05-03T07:50:06.050Z,41.05
2023-05-03T07:52:40.352Z,40.19
2023-05-03T07:55:07.360Z,40.22
2023-05-03T07:57:35.101Z,39.48
2023-05-03T08:02:51.453Z,39.50
2023-05-03T08:05:19.412Z,39.30
2023-05-03T08:07:47.132Z,39.07
2023-05-03T08:10:13.529Z,38.75
2023-05-03T08:12:42.011Z,37.98
2023-05-03T08:15:09.887Z,37.76
2023-05-03T08:17:45.253Z,37.34
2023-05-03T08:20:16.945Z,38.06
2023-05-03T08:22:45.052Z,38.11
2023-05-03T08:25:12.580Z,37.41
2023-05-03T08:27:39.973Z,37.12
2023-05-03T08:30:07.740Z,36.65
2023-05-03T08:32:35.785Z,36.53
2023-05-03T08:35:07.879Z,36.35
2023-05-03T08:37:39.976Z,35.58
2023-05-03T08:40:11.275Z,35.52
2023-05-03T08:42:45.070Z,34.10
2023-05-03T08:45:15.812Z,35.17
2023-05-03T08:47:45.193Z,35.06
2023-05-03T08:50:13.194Z,35.31
2023-05-03T08:52:45.051Z,34.78
2023-05-03T08:55:13.124Z,34.88
2023-05-03T08:57:41.039Z,34.69
2023-05-03T09:00:14.138Z,34.63
2023-05-03T09:02:46.214Z,34.72
2023-05-03T09:05:27.635Z,34.79
2023-05-03T09:08:10.534Z,34.21
2023-05-03T09:10:43.257Z,34.41
2023-05-03T09:13:13.220Z,34.47
2023-05-03T09:15:42.633Z,34.76
2023-05-03T09:18:17.238Z,34.41
2023-05-03T09:20:53.390Z,34.65
2023-05-03T09:23:31.078Z,33.90
2023-05-03T09:25:59.892Z,34.48
2023-05-03T09:28:26.846Z,34.89
2023-05-03T09:31:06.912Z,34.00
2023-05-03T09:33:34.215Z,34.97
2023-05-03T09:36:01.591Z,34.41
2023-05-03T09:38:40.179Z,34.48
2023-05-03T09:41:08.781Z,34.59
2023-05-03T09:43:48.122Z,34.52
2023-05-03T09:46:14.753Z,34.37
2023-05-03T09:48:41.600Z,34.01
2023-05-03T09:51:10.595Z,34.26
2023-05-03T09:53:43.963Z,34.11
2023-05-03T09:56:13.705Z,34.36
2023-05-03T09:58:41.592Z,34.53
2023-05-03T10:01:10.467Z,34.64
2023-05-03T10:03:43.749Z,34.06
2023-05-03T10:06:17.044Z,33.74
2023-05-03T10:08:55.037Z,33.04
2023-05-03T10:11:28.211Z,33.63
2023-05-03T10:13:55.961Z,34.10
2023-05-03T10:16:29.479Z,33.59
2023-05-03T10:19:17.371Z,34.06
2023-05-03T10:22:06.631Z,33.68
2023-05-03T10:24:39.319Z,33.52
2023-05-03T10:27:11.887Z,33.13
2023-05-03T10:29:53.607Z,33.24
2023-05-03T10:32:41.800Z,33.16
2023-05-03T10:35:10.253Z,33.48
2023-05-03T10:37:37.963Z,33.26
2023-05-03T10:40:12.150Z,33.09
2023-05-03T10:42:56.951Z,33.19
2023-05-03T10:45:28.504Z,32.86
2023-05-03T10:48:21.228Z,32.85
2023-05-03T10:50:48.172Z,33.04
2023-05-03T10:53:38.059Z,32.91
2023-05-03T10:56:08.522Z,32.87
2023-05-03T10:58:37.503Z,32.99
2023-05-03T11:01:07.769Z,33.46
2023-05-03T11:03:51.735Z,33.12
2023-05-03T11:06:35.709Z,33.29
2023-05-03T11:09:07.940Z,33.08
2023-05-03T11:11:39.813Z,33.19
2023-05-03T11:14:07.568Z,32.39
2023-05-03T11:16:36.664Z,32.76
2023-05-03T11:19:06.665Z,32.48
2023-05-03T11:21:34.811Z,32.01
2023-05-03T11:24:02.106Z,32.43
2023-05-03T11:26:28.571Z,32.77
2023-05-03T11:28:55.878Z,33.11
2023-05-03T11:31:23.326Z,32.72
2023-05-03T11:33:51.330Z,32.66
2023-05-03T11:36:18.366Z,32.44
2023-05-03T11:38:47.441Z,32.40
2023-05-03T11:41:21.095Z,32.10
2023-05-03T11:44:00.453Z,31.84
2023-05-03T11:46:35.061Z,32.03
2023-05-03T11:49:04.117Z,32.30
2023-05-03T11:51:31.370Z,32.09
2023-05-03T11:54:06.849Z,31.71
2023-05-03T11:56:41.195Z,31.99
2023-05-03T11:59:07.768Z,32.20
2023-05-03T12:01:35.441Z,31.79
2023-05-03T12:04:05.416Z,31.76
2023-05-03T12:06:35.915Z,31.89
2023-05-03T12:09:04.423Z,31.60
2023-05-03T12:11:40.493Z,31.10
2023-05-03T12:14:07.201Z,32.16
2023-05-03T12:16:51.636Z,32.44
2023-05-03T12:19:32.036Z,31.00
2023-05-03T12:22:22.943Z,31.53
2023-05-03T12:24:49.341Z,31.47
2023-05-03T12:27:19.026Z,31.69
2023-05-03T12:29:47.360Z,31.23
2023-05-03T12:32:14.518Z,31.11
2023-05-03T12:34:43.443Z,31.10
2023-05-03T12:37:12.311Z,31.19
2023-05-03T12:39:40.341Z,31.53
2023-05-03T12:42:09.132Z,31.32
2023-05-03T12:44:36.733Z,31.37
2023-05-03T12:47:04.496Z,31.10
2023-05-03T12:49:31.586Z,30.87
2023-05-03T12:54:33.384Z,30.78
2023-05-03T12:59:41.640Z,31.04
2023-05-03T13:07:14.819Z,30.74
2023-05-03T13:12:28.344Z,30.45
2023-05-03T13:14:57.826Z,30.54
2023-05-03T13:17:24.724Z,30.64
2023-05-03T13:19:52.920Z,30.56
2023-05-03T13:22:19.580Z,30.54
2023-05-03T13:24:48.344Z,30.35
2023-05-03T13:27:16.129Z,30.23
2023-05-03T13:29:42.618Z,30.40
2023-05-03T13:32:09.655Z,30.22
2023-05-03T13:34:36.430Z,30.36
2023-05-03T13:37:04.157Z,30.20
2023-05-03T13:39:30.755Z,30.17
2023-05-03T13:41:57.106Z,29.96
2023-05-03T13:44:26.660Z,29.88
2023-05-03T13:46:53.934Z,29.74
2023-05-03T13:49:20.697Z,29.73
2023-05-03T13:51:47.296Z,29.58
2023-05-03T13:54:15.474Z,29.56
2023-05-03T13:56:43.304Z,29.82
2023-05-03T13:59:16.656Z,29.43
2023-05-03T14:01:43.636Z,29.61
2023-05-03T14:04:10.876Z,29.37
2023-05-03T14:06:40.353Z,29.40
2023-05-03T14:09:09.032Z,29.16
2023-05-03T14:11:35.631Z,29.20
2023-05-03T14:14:02.299Z,29.03
2023-05-03T14:18:58.759Z,29.18
2023-05-03T14:21:25.162Z,28.76
2023-05-03T14:23:51.603Z,28.90
2023-05-03T14:26:19.682Z,28.66
2023-05-03T14:28:46.641Z,28.96
2023-05-03T14:31:13.380Z,28.70
2023-05-03T14:33:39.771Z,28.72
2023-05-03T14:36:08.210Z,28.55
2023-05-03T14:38:35.403Z,28.32
2023-05-03T14:41:01.842Z,28.59
2023-05-03T14:43:28.679Z,28.60
2023-05-03T14:45:55.484Z,28.59
2023-05-03T14:48:21.884Z,28.33
2023-05-03T14:50:49.538Z,27.94
2023-05-03T14:53:17.175Z,28.34
2023-05-03T14:55:43.641Z,28.25
2023-05-03T14:58:10.559Z,28.25
2023-05-03T15:00:39.565Z,28.18
2023-05-03T15:03:09.070Z,28.03
2023-05-03T15:05:42.487Z,27.49
2023-05-03T15:08:09.066Z,27.81
2023-05-03T15:10:38.599Z,27.17
2023-05-03T15:13:05.491Z,27.65
2023-05-03T15:15:31.922Z,27.82
2023-05-03T15:17:58.509Z,27.80
2023-05-03T15:20:25.400Z,27.96
2023-05-03T15:22:51.970Z,27.85
2023-05-03T15:25:18.554Z,27.89
2023-05-03T15:27:45.143Z,27.70
2023-05-03T15:30:15.146Z,27.86
2023-05-03T15:32:41.651Z,27.92
2023-05-03T15:35:08.377Z,27.83
2023-05-03T15:37:37.233Z,27.67
2023-05-03T15:40:05.568Z,27.84
2023-05-03T15:42:32.064Z,28.76
2023-05-03T15:44:58.505Z,27.54
2023-05-03T15:47:24.882Z,27.45
2023-05-03T15:49:51.497Z,27.33
2023-05-03T15:52:19.719Z,27.44
2023-05-03T15:54:46.938Z,27.42
2023-05-03T15:57:13.816Z,27.58
2023-05-03T15:59:40.544Z,27.07
2023-05-03T16:02:08.040Z,27.27
2023-05-03T16:04:37.191Z,27.42
2023-05-03T16:07:05.087Z,27.36
2023-05-03T16:09:31.776Z,27.60
2023-05-03T16:11:59.147Z,27.42
2023-05-03T16:14:26.406Z,27.40
2023-05-03T16:16:54.462Z,27.13
2023-05-03T16:19:21.415Z,27.29
2023-05-03T16:21:48.050Z,27.19
2023-05-03T16:24:14.636Z,27.09
2023-05-03T16:26:41.353Z,27.19
2023-05-03T16:29:07.954Z,27.13
2023-05-03T16:31:34.770Z,27.25
2023-05-03T16:34:01.789Z,27.44
2023-05-03T16:36:30.430Z,27.64
2023-05-03T16:38:56.875Z,27.57
2023-05-03T16:41:24.209Z,27.36
2023-05-03T16:43:50.800Z,27.21
2023-05-03T16:46:17.479Z,27.44
2023-05-03T16:48:43.913Z,27.06
2023-05-03T16:51:10.293Z,27.50
2023-05-03T16:53:36.874Z,27.16
2023-05-03T16:56:03.593Z,27.52
2023-05-03T16:58:29.977Z,27.21
2023-05-03T17:00:56.496Z,27.40
2023-05-03T17:03:23.294Z,27.36
2023-05-03T17:05:50.036Z,27.19
2023-05-03T17:08:16.645Z,27.23
2023-05-03T17:10:44.806Z,27.18
2023-05-03T17:13:11.626Z,27.26
2023-05-03T17:15:38.428Z,27.29
2023-05-03T17:18:05.076Z,26.95
2023-05-03T17:20:32.896Z,27.25
2023-05-03T17:22:59.514Z,27.08
2023-05-03T17:25:26.285Z,27.05
2023-05-03T17:27:53.292Z,27.18
2023-05-03T17:30:21.270Z,27.37
2023-05-03T17:32:48.405Z,27.47
2023-05-03T17:35:15.150Z,27.67
2023-05-03T17:37:41.850Z,27.65
2023-05-03T17:40:11.654Z,27.69
2023-05-03T17:42:38.109Z,27.70
2023-05-03T17:45:05.458Z,27.73
2023-05-03T17:47:32.155Z,27.46
2023-05-03T17:49:58.565Z,27.37
2023-05-03T17:52:25.000Z,27.55
2023-05-03T17:54:52.455Z,27.63
2023-05-03T17:57:22.089Z,27.81
2023-05-03T17:59:48.546Z,27.71
2023-05-03T18:02:15.149Z,27.67
2023-05-03T18:04:41.608Z,27.71
2023-05-03T18:07:08.100Z,27.84
2023-05-03T18:09:34.518Z,27.98
2023-05-03T18:12:02.214Z,27.96
2023-05-03T18:14:28.831Z,27.96
2023-05-03T18:16:55.378Z,27.75
2023-05-03T18:19:22.097Z,28.39
2023-05-03T18:21:48.382Z,28.00
2023-05-03T18:24:15.825Z,28.10
2023-05-03T18:26:42.253Z,28.01
2023-05-03T18:29:08.801Z,28.21
2023-05-03T18:31:35.144Z,28.18
2023-05-03T18:34:01.570Z,28.25
2023-05-03T18:36:27.983Z,28.23
2023-05-03T18:38:54.515Z,28.01
2023-05-03T18:41:20.958Z,28.34
2023-05-03T18:43:47.848Z,28.36
2023-05-03T18:46:20.402Z,28.32
2023-05-03T18:48:47.664Z,28.50
2023-05-03T18:51:14.493Z,28.37
2023-05-03T18:53:40.989Z,28.56
2023-05-03T18:56:07.422Z,28.82
2023-05-03T18:58:34.016Z,28.62
2023-05-03T19:01:00.934Z,28.82
2023-05-03T19:03:31.434Z,28.72
2023-05-03T19:06:07.232Z,28.94
2023-05-03T19:08:34.089Z,29.13
2023-05-03T19:11:11.224Z,28.93
2023-05-03T19:13:37.716Z,29.02
2023-05-03T19:16:04.287Z,29.25
2023-05-03T19:18:31.564Z,29.12
2023-05-03T19:20:58.122Z,29.17
2023-05-03T19:23:24.468Z,29.24
2023-05-03T19:25:50.792Z,29.32
2023-05-03T19:28:17.190Z,29.45
2023-05-03T19:30:45.487Z,29.45
2023-05-03T19:33:12.208Z,29.61
2023-05-03T19:35:39.949Z,29.79
2023-05-03T19:38:07.133Z,29.79
2023-05-03T19:40:34.023Z,29.95
2023-05-03T19:43:00.447Z,29.97
2023-05-03T19:45:26.818Z,30.03
2023-05-03T19:47:53.241Z,30.32
2023-05-03T19:50:19.589Z,30.09
2023-05-03T19:52:46.600Z,30.50
2023-05-03T19:55:14.298Z,30.32
2023-05-03T19:57:40.671Z,30.37
2023-05-03T20:00:08.576Z,30.42
2023-05-03T20:02:37.397Z,30.39
2023-05-03T20:05:04.996Z,30.41
2023-05-03T20:07:32.489Z,30.65
2023-05-03T20:09:59.078Z,30.55
2023-05-03T20:12:26.708Z,30.68
2023-05-03T20:14:53.138Z,30.65
2023-05-03T20:17:19.640Z,30.88
2023-05-03T20:19:50.150Z,31.01
2023-05-03T20:22:17.891Z,30.68
2023-05-03T20:24:44.849Z,31.10
2023-05-03T20:27:11.293Z,31.08
2023-05-03T20:29:37.946Z,31.13
2023-05-03T20:32:04.530Z,31.06
2023-05-03T20:34:30.912Z,31.35
2023-05-03T20:36:57.629Z,31.21
2023-05-03T20:39:24.041Z,31.15
2023-05-03T20:41:50.610Z,31.46
2023-05-03T20:44:17.023Z,31.54
2023-05-03T20:46:43.367Z,31.27
2023-05-03T20:49:10.390Z,31.64
2023-05-03T20:51:37.256Z,31.46
2023-05-03T20:54:03.890Z,31.55
2023-05-03T20:56:32.117Z,31.33
2023-05-03T20:58:58.498Z,31.44
2023-05-03T21:01:24.998Z,31.58
2023-05-03T21:03:51.705Z,31.70
2023-05-03T21:06:18.253Z,31.86
2023-05-03T21:08:44.619Z,31.83
2023-05-03T21:11:11.188Z,31.45
2023-05-03T21:13:37.642Z,31.92
2023-05-03T21:16:04.854Z,31.63
2023-05-03T21:18:31.213Z,32.02
2023-05-03T21:20:57.578Z,31.59
2023-05-03T21:23:25.180Z,32.18
2023-05-03T21:25:55.174Z,32.15
2023-05-03T21:28:22.486Z,31.79
2023-05-03T21:30:50.444Z,31.97
2023-05-03T21:33:16.882Z,32.37
2023-05-03T21:35:43.521Z,31.95
2023-05-03T21:38:10.121Z,31.86
2023-05-03T21:40:37.091Z,32.32
2023-05-03T21:43:05.405Z,32.38
2023-05-03T21:45:32.184Z,32.24
2023-05-03T21:47:58.663Z,32.25
2023-05-03T21:50:25.190Z,32.49
2023-05-03T21:52:51.930Z,32.63
2023-05-03T21:55:19.980Z,32.68
2023-05-03T21:57:46.576Z,32.26
2023-05-03T22:00:17.636Z,32.63
2023-05-03T22:02:44.454Z,32.75
2023-05-03T22:05:11.092Z,32.80
2023-05-03T22:07:37.480Z,32.67
2023-05-03T22:10:04.559Z,32.98
2023-05-03T22:12:31.512Z,32.90
2023-05-03T22:14:57.868Z,33.00
2023-05-03T22:17:26.191Z,32.85
2023-05-03T22:19:52.978Z,32.77
2023-05-03T22:22:19.333Z,32.84
2023-05-03T22:24:45.916Z,33.11
2023-05-03T22:27:12.295Z,32.95
2023-05-03T22:29:38.851Z,32.98
2023-05-03T22:32:06.747Z,33.15
2023-05-03T22:34:33.478Z,33.17
2023-05-03T22:37:02.214Z,33.50
2023-05-03T22:39:28.864Z,33.55
2023-05-03T22:41:55.482Z,33.25
2023-05-03T22:44:21.793Z,33.36
2023-05-03T22:46:48.136Z,33.72
2023-05-03T22:49:14.536Z,33.41
2023-05-03T22:51:41.320Z,33.51
2023-05-03T22:54:07.882Z,33.53
2023-05-03T22:56:34.504Z,33.70
2023-05-03T22:59:01.016Z,33.91
2023-05-03T23:01:27.626Z,33.81
2023-05-03T23:03:54.184Z,33.91
2023-05-03T23:06:20.738Z,34.35
2023-05-03T23:08:47.121Z,34.08
2023-05-03T23:11:13.612Z,34.18
2023-05-03T23:13:40.000Z,34.16
2023-05-03T23:16:07.949Z,34.21
2023-05-03T23:18:34.605Z,34.36
2023-05-03T23:21:01.170Z,34.19
2023-05-03T23:23:27.828Z,34.33
2023-05-03T23:25:54.321Z,34.30
2023-05-03T23:28:21.225Z,34.40
2023-05-03T23:30:48.137Z,34.53
2023-05-03T23:33:15.045Z,34.54
2023-05-03T23:35:41.832Z,34.57
2023-05-03T23:38:08.495Z,34.80
2023-05-03T23:40:34.923Z,34.76
2023-05-03T23:43:01.538Z,34.65
2023-05-03T23:45:27.928Z,34.85
2023-05-03T23:47:54.362Z,34.76
2023-05-03T23:50:21.416Z,35.20
2023-05-03T23:52:47.877Z,35.07
2023-05-03T23:55:14.251Z,35.05
2023-05-03T23:57:40.916Z,35.15
